sensor_id;sensor_type;location;lat;lon;timestamp;temperature;humidity
38265;DHT22;24062;47.480;8.768;2023-04-05T00:03:37;1.10;39.00
38265;DHT22;24062;47.480;8.768;2023-04-05T00:07:27;1.10;39.50
38265;DHT22;24062;47.480;8.768;2023-04-05T00:11:17;0.90;39.40
38265;DHT22;24062;47.480;8.768;2023-04-05T00:15:16;0.70;39.90
38265;DHT22;24062;47.480;8.768;2023-04-05T00:19:09;0.50;40.10
38265;DHT22;24062;47.480;8.768;2023-04-05T00:22:59;0.50;39.90
38265;DHT22;24062;47.480;8.768;2023-04-05T00:26:49;0.50;40.70
38265;DHT22;24062;47.480;8.768;2023-04-05T00:30:48;0.30;40.80
38265;DHT22;24062;47.480;8.768;2023-04-05T00:34:43;0.30;41.40
38265;DHT22;24062;47.480;8.768;2023-04-05T00:38:34;0.20;41.50
38265;DHT22;24062;47.480;8.768;2023-04-05T00:42:25;0.30;41.50
38265;DHT22;24062;47.480;8.768;2023-04-05T00:46:26;0.40;42.10
38265;DHT22;24062;47.480;8.768;2023-04-05T00:50:20;0.50;41.50
38265;DHT22;24062;47.480;8.768;2023-04-05T00:54:13;0.60;41.70
38265;DHT22;24062;47.480;8.768;2023-04-05T00:58:05;0.60;41.90
38265;DHT22;24062;47.480;8.768;2023-04-05T01:02:09;0.70;41.80
38265;DHT22;24062;47.480;8.768;2023-04-05T01:06:08;0.80;42.40
38265;DHT22;24062;47.480;8.768;2023-04-05T01:10:04;0.60;42.60
38265;DHT22;24062;47.480;8.768;2023-04-05T01:13:59;0.40;42.80
38265;DHT22;24062;47.480;8.768;2023-04-05T01:17:59;0.40;43.40
38265;DHT22;24062;47.480;8.768;2023-04-05T01:22:12;0.30;43.30
38265;DHT22;24062;47.480;8.768;2023-04-05T01:30:19;0.50;43.30
38265;DHT22;24062;47.480;8.768;2023-04-05T01:34:22;0.60;43.50
38265;DHT22;24062;47.480;8.768;2023-04-05T01:38:19;0.70;43.90
38265;DHT22;24062;47.480;8.768;2023-04-05T01:42:13;0.70;44.20
38265;DHT22;24062;47.480;8.768;2023-04-05T01:46:08;0.70;44.30
38265;DHT22;24062;47.480;8.768;2023-04-05T01:50:07;0.60;44.10
38265;DHT22;24062;47.480;8.768;2023-04-05T01:54:00;0.70;44.50
38265;DHT22;24062;47.480;8.768;2023-04-05T01:57:53;0.60;44.40
38265;DHT22;24062;47.480;8.768;2023-04-05T02:01:46;0.60;45.10
38265;DHT22;24062;47.480;8.768;2023-04-05T02:05:45;0.60;45.40
38265;DHT22;24062;47.480;8.768;2023-04-05T02:09:37;0.60;45.30
38265;DHT22;24062;47.480;8.768;2023-04-05T02:13:30;0.70;45.60
38265;DHT22;24062;47.480;8.768;2023-04-05T02:17:23;0.60;45.60
38265;DHT22;24062;47.480;8.768;2023-04-05T02:21:22;0.70;45.60
38265;DHT22;24062;47.480;8.768;2023-04-05T02:25:16;0.80;45.60
38265;DHT22;24062;47.480;8.768;2023-04-05T02:29:07;0.90;45.70
38265;DHT22;24062;47.480;8.768;2023-04-05T02:33:00;0.70;45.90
38265;DHT22;24062;47.480;8.768;2023-04-05T02:36:59;0.50;46.50
38265;DHT22;24062;47.480;8.768;2023-04-05T02:40:52;0.40;46.70
38265;DHT22;24062;47.480;8.768;2023-04-05T02:44:44;0.50;46.90
38265;DHT22;24062;47.480;8.768;2023-04-05T02:48:38;0.50;46.80
38265;DHT22;24062;47.480;8.768;2023-04-05T02:52:37;0.60;47.00
38265;DHT22;24062;47.480;8.768;2023-04-05T02:56:30;0.50;47.20
38265;DHT22;24062;47.480;8.768;2023-04-05T03:00:22;0.50;47.40
38265;DHT22;24062;47.480;8.768;2023-04-05T03:04:15;0.40;47.10
38265;DHT22;24062;47.480;8.768;2023-04-05T03:08:13;0.60;47.20
38265;DHT22;24062;47.480;8.768;2023-04-05T03:12:10;0.60;47.10
38265;DHT22;24062;47.480;8.768;2023-04-05T03:16:01;0.60;47.30
38265;DHT22;24062;47.480;8.768;2023-04-05T03:19:53;0.60;47.20
38265;DHT22;24062;47.480;8.768;2023-04-05T03:23:52;0.50;47.30
38265;DHT22;24062;47.480;8.768;2023-04-05T03:27:45;0.40;47.70
38265;DHT22;24062;47.480;8.768;2023-04-05T03:31:38;0.30;48.10
38265;DHT22;24062;47.480;8.768;2023-04-05T03:35:31;0.20;48.50
38265;DHT22;24062;47.480;8.768;2023-04-05T03:39:30;0.20;48.30
38265;DHT22;24062;47.480;8.768;2023-04-05T03:43:23;0.30;48.40
38265;DHT22;24062;47.480;8.768;2023-04-05T03:47:14;0.30;48.10
38265;DHT22;24062;47.480;8.768;2023-04-05T03:51:07;0.30;48.00
38265;DHT22;24062;47.480;8.768;2023-04-05T03:55:06;0.20;48.00
38265;DHT22;24062;47.480;8.768;2023-04-05T03:58:59;0.10;48.10
38265;DHT22;24062;47.480;8.768;2023-04-05T04:02:51;0.00;47.90
38265;DHT22;24062;47.480;8.768;2023-04-05T04:06:45;-0.10;48.00
38265;DHT22;24062;47.480;8.768;2023-04-05T04:10:44;-0.20;48.00
38265;DHT22;24062;47.480;8.768;2023-04-05T04:14:37;-0.30;48.10
38265;DHT22;24062;47.480;8.768;2023-04-05T04:18:28;-0.40;48.20
38265;DHT22;24062;47.480;8.768;2023-04-05T04:22:21;-0.50;48.30
38265;DHT22;24062;47.480;8.768;2023-04-05T04:26:20;-0.60;48.60
38265;DHT22;24062;47.480;8.768;2023-04-05T04:30:17;-0.70;48.80
38265;DHT22;24062;47.480;8.768;2023-04-05T04:34:12;-0.80;48.90
38265;DHT22;24062;47.480;8.768;2023-04-05T04:38:05;-0.90;49.20
38265;DHT22;24062;47.480;8.768;2023-04-05T04:42:04;-0.90;49.20
38265;DHT22;24062;47.480;8.768;2023-04-05T04:45:57;-0.90;49.40
38265;DHT22;24062;47.480;8.768;2023-04-05T04:49:50;-1.10;49.40
38265;DHT22;24062;47.480;8.768;2023-04-05T04:53:43;-1.10;49.70
38265;DHT22;24062;47.480;8.768;2023-04-05T04:57:42;-1.20;49.70
38265;DHT22;24062;47.480;8.768;2023-04-05T05:01:34;-1.20;49.70
38265;DHT22;24062;47.480;8.768;2023-04-05T05:05:29;-1.20;50.00
38265;DHT22;24062;47.480;8.768;2023-04-05T05:09:22;-1.20;50.20
38265;DHT22;24062;47.480;8.768;2023-04-05T05:13:21;-1.30;50.40
38265;DHT22;24062;47.480;8.768;2023-04-05T05:17:13;-1.40;50.70
38265;DHT22;24062;47.480;8.768;2023-04-05T05:21:05;-1.30;50.70
38265;DHT22;24062;47.480;8.768;2023-04-05T05:24:59;-1.20;50.70
38265;DHT22;24062;47.480;8.768;2023-04-05T05:28:59;-1.20;51.20
38265;DHT22;24062;47.480;8.768;2023-04-05T05:32:52;-1.20;50.90
38265;DHT22;24062;47.480;8.768;2023-04-05T05:36:43;-1.10;51.10
38265;DHT22;24062;47.480;8.768;2023-04-05T05:40:36;-1.20;51.30
38265;DHT22;24062;47.480;8.768;2023-04-05T05:44:35;-0.90;51.70
38265;DHT22;24062;47.480;8.768;2023-04-05T05:48:29;-0.60;51.90
38265;DHT22;24062;47.480;8.768;2023-04-05T05:52:20;-0.40;52.10
38265;DHT22;24062;47.480;8.768;2023-04-05T05:56:13;-0.30;52.10
38265;DHT22;24062;47.480;8.768;2023-04-05T06:00:12;-0.10;52.20
38265;DHT22;24062;47.480;8.768;2023-04-05T06:04:05;0.20;52.30
38265;DHT22;24062;47.480;8.768;2023-04-05T06:07:58;0.40;52.40
38265;DHT22;24062;47.480;8.768;2023-04-05T06:11:51;0.50;52.50
38265;DHT22;24062;47.480;8.768;2023-04-05T06:15:50;0.70;52.70
38265;DHT22;24062;47.480;8.768;2023-04-05T06:19:43;0.80;52.90
38265;DHT22;24062;47.480;8.768;2023-04-05T06:23:34;1.10;53.00
38265;DHT22;24062;47.480;8.768;2023-04-05T06:27:27;1.30;52.90
38265;DHT22;24062;47.480;8.768;2023-04-05T06:31:26;1.50;52.70
38265;DHT22;24062;47.480;8.768;2023-04-05T06:35:19;1.80;52.80
38265;DHT22;24062;47.480;8.768;2023-04-05T06:39:11;2.00;52.70
38265;DHT22;24062;47.480;8.768;2023-04-05T06:43:05;1.90;52.10
38265;DHT22;24062;47.480;8.768;2023-04-05T06:47:04;2.10;52.50
38265;DHT22;24062;47.480;8.768;2023-04-05T06:50:57;2.40;52.50
38265;DHT22;24062;47.480;8.768;2023-04-05T06:54:48;2.80;52.60
38265;DHT22;24062;47.480;8.768;2023-04-05T06:58:41;3.10;52.20
38265;DHT22;24062;47.480;8.768;2023-04-05T07:02:40;3.20;52.20
38265;DHT22;24062;47.480;8.768;2023-04-05T07:06:33;3.50;52.50
38265;DHT22;24062;47.480;8.768;2023-04-05T07:10:27;3.40;51.60
38265;DHT22;24062;47.480;8.768;2023-04-05T07:14:20;3.00;51.20
38265;DHT22;24062;47.480;8.768;2023-04-05T07:18:19;3.10;51.80
38265;DHT22;24062;47.480;8.768;2023-04-05T07:22:12;3.30;51.90
38265;DHT22;24062;47.480;8.768;2023-04-05T07:26:05;3.50;52.20
38265;DHT22;24062;47.480;8.768;2023-04-05T07:29:58;3.70;51.90
38265;DHT22;24062;47.480;8.768;2023-04-05T07:33:58;3.80;51.40
38265;DHT22;24062;47.480;8.768;2023-04-05T07:37:51;3.90;51.50
38265;DHT22;24062;47.480;8.768;2023-04-05T07:41:42;4.20;51.50
38265;DHT22;24062;47.480;8.768;2023-04-05T07:45:35;4.40;51.30
38265;DHT22;24062;47.480;8.768;2023-04-05T07:49:33;4.50;52.10
38265;DHT22;24062;47.480;8.768;2023-04-05T07:53:28;4.70;51.60
38265;DHT22;24062;47.480;8.768;2023-04-05T07:57:19;4.90;51.00
38265;DHT22;24062;47.480;8.768;2023-04-05T08:01:13;5.10;50.90
38265;DHT22;24062;47.480;8.768;2023-04-05T08:05:12;5.20;50.60
38265;DHT22;24062;47.480;8.768;2023-04-05T08:09:05;5.40;50.70
38265;DHT22;24062;47.480;8.768;2023-04-05T08:12:58;5.60;50.50
38265;DHT22;24062;47.480;8.768;2023-04-05T08:16:50;5.70;50.10
38265;DHT22;24062;47.480;8.768;2023-04-05T08:20:49;5.80;49.50
38265;DHT22;24062;47.480;8.768;2023-04-05T08:24:42;5.80;48.60
38265;DHT22;24062;47.480;8.768;2023-04-05T08:28:34;5.70;48.10
38265;DHT22;24062;47.480;8.768;2023-04-05T08:32:26;5.80;48.10
38265;DHT22;24062;47.480;8.768;2023-04-05T08:36:25;6.00;48.80
38265;DHT22;24062;47.480;8.768;2023-04-05T08:40:18;6.20;48.00
38265;DHT22;24062;47.480;8.768;2023-04-05T08:44:11;6.50;48.10
38265;DHT22;24062;47.480;8.768;2023-04-05T08:48:04;6.70;47.60
38265;DHT22;24062;47.480;8.768;2023-04-05T08:52:03;6.90;46.90
38265;DHT22;24062;47.480;8.768;2023-04-05T08:55:56;6.80;46.10
38265;DHT22;24062;47.480;8.768;2023-04-05T08:59:49;6.80;46.00
38265;DHT22;24062;47.480;8.768;2023-04-05T09:03:43;6.80;46.20
38265;DHT22;24062;47.480;8.768;2023-04-05T09:07:42;6.90;46.50
38265;DHT22;24062;47.480;8.768;2023-04-05T09:11:38;7.20;46.50
38265;DHT22;24062;47.480;8.768;2023-04-05T09:15:30;7.30;45.70
38265;DHT22;24062;47.480;8.768;2023-04-05T09:19:24;7.20;45.80
38265;DHT22;24062;47.480;8.768;2023-04-05T09:23:23;7.30;45.90
38265;DHT22;24062;47.480;8.768;2023-04-05T09:27:16;7.40;46.00
38265;DHT22;24062;47.480;8.768;2023-04-05T09:31:08;7.60;46.50
38265;DHT22;24062;47.480;8.768;2023-04-05T09:35:01;8.00;46.20
38265;DHT22;24062;47.480;8.768;2023-04-05T09:39:04;8.20;45.50
38265;DHT22;24062;47.480;8.768;2023-04-05T09:42:58;8.40;45.90
38265;DHT22;24062;47.480;8.768;2023-04-05T09:46:49;8.40;45.50
38265;DHT22;24062;47.480;8.768;2023-04-05T09:50:42;8.30;44.10
38265;DHT22;24062;47.480;8.768;2023-04-05T09:54:41;8.10;44.60
38265;DHT22;24062;47.480;8.768;2023-04-05T09:58:34;8.10;43.70
38265;DHT22;24062;47.480;8.768;2023-04-05T10:02:33;8.00;43.50
38265;DHT22;24062;47.480;8.768;2023-04-05T10:06:36;8.20;43.50
38265;DHT22;24062;47.480;8.768;2023-04-05T10:10:35;8.50;43.50
38265;DHT22;24062;47.480;8.768;2023-04-05T10:14:29;8.60;41.60
38265;DHT22;24062;47.480;8.768;2023-04-05T10:18:22;8.90;43.80
38265;DHT22;24062;47.480;8.768;2023-04-05T10:22:19;9.10;42.70
38265;DHT22;24062;47.480;8.768;2023-04-05T10:26:23;9.20;42.40
38265;DHT22;24062;47.480;8.768;2023-04-05T10:30:19;9.30;42.00
38265;DHT22;24062;47.480;8.768;2023-04-05T10:34:17;9.40;40.20
38265;DHT22;24062;47.480;8.768;2023-04-05T10:38:16;9.30;39.70
38265;DHT22;24062;47.480;8.768;2023-04-05T10:42:16;9.20;37.20
38265;DHT22;24062;47.480;8.768;2023-04-05T10:46:11;9.10;37.40
38265;DHT22;24062;47.480;8.768;2023-04-05T10:50:04;9.10;37.50
38265;DHT22;24062;47.480;8.768;2023-04-05T10:54:00;9.50;38.30
38265;DHT22;24062;47.480;8.768;2023-04-05T10:57:59;9.90;39.20
38265;DHT22;24062;47.480;8.768;2023-04-05T11:01:52;10.10;36.60
38265;DHT22;24062;47.480;8.768;2023-04-05T11:05:43;10.10;37.50
38265;DHT22;24062;47.480;8.768;2023-04-05T11:09:36;10.50;38.10
38265;DHT22;24062;47.480;8.768;2023-04-05T11:13:46;10.90;38.00
38265;DHT22;24062;47.480;8.768;2023-04-05T11:17:39;10.90;37.00
38265;DHT22;24062;47.480;8.768;2023-04-05T11:21:32;11.00;38.10
38265;DHT22;24062;47.480;8.768;2023-04-05T11:25:25;11.30;38.00
38265;DHT22;24062;47.480;8.768;2023-04-05T11:29:46;11.30;37.90
38265;DHT22;24062;47.480;8.768;2023-04-05T11:33:53;11.60;38.10
38265;DHT22;24062;47.480;8.768;2023-04-05T11:37:54;11.90;38.20
38265;DHT22;24062;47.480;8.768;2023-04-05T11:41:48;12.20;37.10
38265;DHT22;24062;47.480;8.768;2023-04-05T11:45:50;12.40;37.60
38265;DHT22;24062;47.480;8.768;2023-04-05T11:49:48;12.20;36.20
38265;DHT22;24062;47.480;8.768;2023-04-05T11:53:39;12.30;36.10
38265;DHT22;24062;47.480;8.768;2023-04-05T11:57:39;12.30;34.00
38265;DHT22;24062;47.480;8.768;2023-04-05T12:01:38;11.50;33.40
38265;DHT22;24062;47.480;8.768;2023-04-05T12:05:45;11.40;35.60
38265;DHT22;24062;47.480;8.768;2023-04-05T12:13:44;12.10;35.90
38265;DHT22;24062;47.480;8.768;2023-04-05T12:17:44;12.30;34.50
38265;DHT22;24062;47.480;8.768;2023-04-05T12:21:37;12.70;35.50
38265;DHT22;24062;47.480;8.768;2023-04-05T12:25:29;12.60;34.10
38265;DHT22;24062;47.480;8.768;2023-04-05T12:29:21;12.70;34.10
38265;DHT22;24062;47.480;8.768;2023-04-05T12:33:27;13.00;34.20
38265;DHT22;24062;47.480;8.768;2023-04-05T12:37:20;13.10;32.70
38265;DHT22;24062;47.480;8.768;2023-04-05T12:41:13;13.00;33.50
38265;DHT22;24062;47.480;8.768;2023-04-05T12:45:08;13.50;34.30
38265;DHT22;24062;47.480;8.768;2023-04-05T12:49:09;13.80;34.10
38265;DHT22;24062;47.480;8.768;2023-04-05T12:53:04;14.30;33.90
38265;DHT22;24062;47.480;8.768;2023-04-05T12:56:55;14.50;33.40
38265;DHT22;24062;47.480;8.768;2023-04-05T13:00:48;14.80;33.40
38265;DHT22;24062;47.480;8.768;2023-04-05T13:04:47;15.00;32.00
38265;DHT22;24062;47.480;8.768;2023-04-05T13:08:40;14.80;31.10
38265;DHT22;24062;47.480;8.768;2023-04-05T13:12:31;14.20;29.50
38265;DHT22;24062;47.480;8.768;2023-04-05T13:16:25;13.60;30.30
38265;DHT22;24062;47.480;8.768;2023-04-05T13:20:24;14.10;31.80
38265;DHT22;24062;47.480;8.768;2023-04-05T13:24:17;14.90;31.90
38265;DHT22;24062;47.480;8.768;2023-04-05T13:28:08;15.80;32.80
38265;DHT22;24062;47.480;8.768;2023-04-05T13:32:01;16.60;31.50
38265;DHT22;24062;47.480;8.768;2023-04-05T13:36:00;16.30;29.80
38265;DHT22;24062;47.480;8.768;2023-04-05T13:39:53;16.40;30.00
38265;DHT22;24062;47.480;8.768;2023-04-05T13:43:44;17.20;29.60
38265;DHT22;24062;47.480;8.768;2023-04-05T13:47:37;19.10;31.00
38265;DHT22;24062;47.480;8.768;2023-04-05T13:51:36;21.00;30.00
38265;DHT22;24062;47.480;8.768;2023-04-05T13:55:31;22.20;28.00
38265;DHT22;24062;47.480;8.768;2023-04-05T13:59:24;23.20;28.30
38265;DHT22;24062;47.480;8.768;2023-04-05T14:03:17;25.00;26.30
38265;DHT22;24062;47.480;8.768;2023-04-05T14:07:16;27.20;28.00
38265;DHT22;24062;47.480;8.768;2023-04-05T14:11:09;29.50;27.30
38265;DHT22;24062;47.480;8.768;2023-04-05T14:15:00;30.70;27.30
38265;DHT22;24062;47.480;8.768;2023-04-05T14:18:53;32.60;26.90
38265;DHT22;24062;47.480;8.768;2023-04-05T14:22:52;33.40;25.90
38265;DHT22;24062;47.480;8.768;2023-04-05T14:26:44;32.50;23.40
38265;DHT22;24062;47.480;8.768;2023-04-05T14:30:38;32.80;23.80
38265;DHT22;24062;47.480;8.768;2023-04-05T14:34:32;32.80;23.00
38265;DHT22;24062;47.480;8.768;2023-04-05T14:38:32;33.80;24.30
38265;DHT22;24062;47.480;8.768;2023-04-05T14:42:25;34.50;22.70
38265;DHT22;24062;47.480;8.768;2023-04-05T14:46:16;34.90;22.70
38265;DHT22;24062;47.480;8.768;2023-04-05T14:50:09;36.10;23.70
38265;DHT22;24062;47.480;8.768;2023-04-05T14:54:08;36.10;22.30
38265;DHT22;24062;47.480;8.768;2023-04-05T14:58:01;35.90;21.50
38265;DHT22;24062;47.480;8.768;2023-04-05T15:01:52;34.90;21.00
38265;DHT22;24062;47.480;8.768;2023-04-05T15:05:46;36.00;21.20
38265;DHT22;24062;47.480;8.768;2023-04-05T15:09:44;36.50;21.00
38265;DHT22;24062;47.480;8.768;2023-04-05T15:13:39;37.60;21.50
38265;DHT22;24062;47.480;8.768;2023-04-05T15:17:31;37.80;20.20
38265;DHT22;24062;47.480;8.768;2023-04-05T15:21:24;37.90;20.20
38265;DHT22;24062;47.480;8.768;2023-04-05T15:25:23;37.80;20.00
38265;DHT22;24062;47.480;8.768;2023-04-05T15:29:16;38.30;19.70
38265;DHT22;24062;47.480;8.768;2023-04-05T15:33:07;38.50;20.30
38265;DHT22;24062;47.480;8.768;2023-04-05T15:37:00;39.70;20.10
38265;DHT22;24062;47.480;8.768;2023-04-05T15:40:59;39.90;19.20
38265;DHT22;24062;47.480;8.768;2023-04-05T15:44:51;38.70;19.30
38265;DHT22;24062;47.480;8.768;2023-04-05T15:48:43;39.10;19.10
38265;DHT22;24062;47.480;8.768;2023-04-05T15:52:37;38.80;19.00
38265;DHT22;24062;47.480;8.768;2023-04-05T15:56:36;38.00;18.60
38265;DHT22;24062;47.480;8.768;2023-04-05T16:00:29;37.20;18.30
38265;DHT22;24062;47.480;8.768;2023-04-05T16:04:21;36.50;18.50
38265;DHT22;24062;47.480;8.768;2023-04-05T16:08:15;36.30;18.20
38265;DHT22;24062;47.480;8.768;2023-04-05T16:12:13;35.40;17.50
38265;DHT22;24062;47.480;8.768;2023-04-05T16:16:06;34.20;17.70
38265;DHT22;24062;47.480;8.768;2023-04-05T16:19:58;34.60;18.20
38265;DHT22;24062;47.480;8.768;2023-04-05T16:23:50;34.00;17.80
38265;DHT22;24062;47.480;8.768;2023-04-05T16:27:49;34.10;18.10
38265;DHT22;24062;47.480;8.768;2023-04-05T16:31:42;33.80;18.50
38265;DHT22;24062;47.480;8.768;2023-04-05T16:35:37;32.00;17.40
38265;DHT22;24062;47.480;8.768;2023-04-05T16:39:30;25.60;16.50
38265;DHT22;24062;47.480;8.768;2023-04-05T16:43:29;21.10;15.90
38265;DHT22;24062;47.480;8.768;2023-04-05T16:47:22;19.30;17.30
38265;DHT22;24062;47.480;8.768;2023-04-05T16:51:13;23.40;19.70
38265;DHT22;24062;47.480;8.768;2023-04-05T16:55:07;25.90;19.70
38265;DHT22;24062;47.480;8.768;2023-04-05T16:59:06;27.30;19.50
38265;DHT22;24062;47.480;8.768;2023-04-05T17:02:59;27.50;19.90
38265;DHT22;24062;47.480;8.768;2023-04-05T17:06:50;27.30;19.50
38265;DHT22;24062;47.480;8.768;2023-04-05T17:10:45;26.50;19.40
38265;DHT22;24062;47.480;8.768;2023-04-05T17:14:43;25.40;19.40
38265;DHT22;24062;47.480;8.768;2023-04-05T17:18:36;22.50;18.80
38265;DHT22;24062;47.480;8.768;2023-04-05T17:22:28;18.70;18.00
38265;DHT22;24062;47.480;8.768;2023-04-05T17:26:21;16.50;18.20
38265;DHT22;24062;47.480;8.768;2023-04-05T17:30:21;14.80;18.10
38265;DHT22;24062;47.480;8.768;2023-04-05T17:34:13;13.70;18.40
38265;DHT22;24062;47.480;8.768;2023-04-05T17:38:05;13.00;18.50
38265;DHT22;24062;47.480;8.768;2023-04-05T17:41:58;12.40;18.70
38265;DHT22;24062;47.480;8.768;2023-04-05T17:45:57;11.90;19.30
38265;DHT22;24062;47.480;8.768;2023-04-05T17:49:50;11.60;19.30
38265;DHT22;24062;47.480;8.768;2023-04-05T17:53:42;11.50;19.20
38265;DHT22;24062;47.480;8.768;2023-04-05T17:57:35;11.20;19.90
38265;DHT22;24062;47.480;8.768;2023-04-05T18:01:34;10.80;20.50
38265;DHT22;24062;47.480;8.768;2023-04-05T18:05:27;10.30;20.50
38265;DHT22;24062;47.480;8.768;2023-04-05T18:09:18;9.60;21.70
38265;DHT22;24062;47.480;8.768;2023-04-05T18:13:11;9.10;21.80
38265;DHT22;24062;47.480;8.768;2023-04-05T18:17:10;8.80;22.40
38265;DHT22;24062;47.480;8.768;2023-04-05T18:21:03;8.50;23.00
38265;DHT22;24062;47.480;8.768;2023-04-05T18:24:54;8.20;23.10
38265;DHT22;24062;47.480;8.768;2023-04-05T18:28:48;8.10;23.50
38265;DHT22;24062;47.480;8.768;2023-04-05T18:32:54;7.80;23.90
38265;DHT22;24062;47.480;8.768;2023-04-05T18:36:47;7.60;23.90
38265;DHT22;24062;47.480;8.768;2023-04-05T18:43:12;7.40;24.10
38265;DHT22;24062;47.480;8.768;2023-04-05T18:47:09;7.10;25.10
38265;DHT22;24062;47.480;8.768;2023-04-05T18:51:01;6.70;25.30
38265;DHT22;24062;47.480;8.768;2023-04-05T18:54:59;6.50;25.40
38265;DHT22;24062;47.480;8.768;2023-04-05T18:58:53;6.30;25.30
38265;DHT22;24062;47.480;8.768;2023-04-05T19:02:46;6.10;25.70
38265;DHT22;24062;47.480;8.768;2023-04-05T19:06:37;5.90;25.60
38265;DHT22;24062;47.480;8.768;2023-04-05T19:10:38;5.90;25.50
38265;DHT22;24062;47.480;8.768;2023-04-05T19:14:31;5.90;25.80
38265;DHT22;24062;47.480;8.768;2023-04-05T19:18:23;5.80;26.10
38265;DHT22;24062;47.480;8.768;2023-04-05T19:22:16;5.60;26.00
38265;DHT22;24062;47.480;8.768;2023-04-05T19:26:15;5.50;26.40
38265;DHT22;24062;47.480;8.768;2023-04-05T19:30:08;5.40;26.80
38265;DHT22;24062;47.480;8.768;2023-04-05T19:34:01;5.20;26.70
38265;DHT22;24062;47.480;8.768;2023-04-05T19:37:53;5.00;27.10
38265;DHT22;24062;47.480;8.768;2023-04-05T19:41:51;4.90;27.10
38265;DHT22;24062;47.480;8.768;2023-04-05T19:45:44;4.80;27.40
38265;DHT22;24062;47.480;8.768;2023-04-05T19:49:37;4.70;27.50
38265;DHT22;24062;47.480;8.768;2023-04-05T19:53:38;4.60;27.70
38265;DHT22;24062;47.480;8.768;2023-04-05T19:57:38;4.50;28.40
38265;DHT22;24062;47.480;8.768;2023-04-05T20:01:32;4.40;29.10
38265;DHT22;24062;47.480;8.768;2023-04-05T20:05:50;4.30;29.30
38265;DHT22;24062;47.480;8.768;2023-04-05T20:09:44;4.20;29.30
38265;DHT22;24062;47.480;8.768;2023-04-05T20:13:43;4.10;29.70
38265;DHT22;24062;47.480;8.768;2023-04-05T20:17:40;4.00;29.70
38265;DHT22;24062;47.480;8.768;2023-04-05T20:21:33;4.00;29.80
38265;DHT22;24062;47.480;8.768;2023-04-05T20:25:35;3.90;29.80
38265;DHT22;24062;47.480;8.768;2023-04-05T20:29:36;3.90;31.00
38265;DHT22;24062;47.480;8.768;2023-04-05T20:33:32;3.80;31.60
38265;DHT22;24062;47.480;8.768;2023-04-05T20:37:25;3.80;31.80
38265;DHT22;24062;47.480;8.768;2023-04-05T20:41:17;3.80;32.00
38265;DHT22;24062;47.480;8.768;2023-04-05T20:45:16;3.70;32.40
38265;DHT22;24062;47.480;8.768;2023-04-05T20:49:09;3.70;32.60
38265;DHT22;24062;47.480;8.768;2023-04-05T20:53:02;3.70;32.50
38265;DHT22;24062;47.480;8.768;2023-04-05T20:56:54;3.70;33.00
38265;DHT22;24062;47.480;8.768;2023-04-05T21:00:53;3.60;33.40
38265;DHT22;24062;47.480;8.768;2023-04-05T21:04:47;3.50;33.70
38265;DHT22;24062;47.480;8.768;2023-04-05T21:08:40;3.50;34.10
38265;DHT22;24062;47.480;8.768;2023-04-05T21:12:32;3.40;34.90
38265;DHT22;24062;47.480;8.768;2023-04-05T21:16:31;3.10;36.10
38265;DHT22;24062;47.480;8.768;2023-04-05T21:20:23;2.90;35.70
38265;DHT22;24062;47.480;8.768;2023-04-05T21:24:16;3.00;36.20
38265;DHT22;24062;47.480;8.768;2023-04-05T21:28:07;3.20;36.90
38265;DHT22;24062;47.480;8.768;2023-04-05T21:32:06;3.40;37.00
38265;DHT22;24062;47.480;8.768;2023-04-05T21:35:59;3.50;36.80
38265;DHT22;24062;47.480;8.768;2023-04-05T21:39:52;3.60;36.90
38265;DHT22;24062;47.480;8.768;2023-04-05T21:43:43;3.50;37.40
38265;DHT22;24062;47.480;8.768;2023-04-05T21:47:43;3.30;37.50
38265;DHT22;24062;47.480;8.768;2023-04-05T21:51:36;3.40;38.50
38265;DHT22;24062;47.480;8.768;2023-04-05T21:55:29;3.50;38.20
38265;DHT22;24062;47.480;8.768;2023-04-05T21:59:20;3.60;37.90
38265;DHT22;24062;47.480;8.768;2023-04-05T22:03:19;3.80;37.80
38265;DHT22;24062;47.480;8.768;2023-04-05T22:07:12;3.80;38.30
38265;DHT22;24062;47.480;8.768;2023-04-05T22:11:05;3.80;38.10
38265;DHT22;24062;47.480;8.768;2023-04-05T22:14:57;3.80;38.20
38265;DHT22;24062;47.480;8.768;2023-04-05T22:18:57;3.70;38.60
38265;DHT22;24062;47.480;8.768;2023-04-05T22:22:50;3.50;38.90
38265;DHT22;24062;47.480;8.768;2023-04-05T22:26:43;3.30;39.00
38265;DHT22;24062;47.480;8.768;2023-04-05T22:30:35;3.10;39.80
38265;DHT22;24062;47.480;8.768;2023-04-05T22:34:34;3.00;39.70
38265;DHT22;24062;47.480;8.768;2023-04-05T22:38:26;2.90;40.30
38265;DHT22;24062;47.480;8.768;2023-04-05T22:42:19;3.00;39.90
38265;DHT22;24062;47.480;8.768;2023-04-05T22:46:11;2.90;41.00
38265;DHT22;24062;47.480;8.768;2023-04-05T22:50:09;2.70;40.60
38265;DHT22;24062;47.480;8.768;2023-04-05T22:54:02;2.70;40.60
38265;DHT22;24062;47.480;8.768;2023-04-05T22:57:55;2.80;40.90
38265;DHT22;24062;47.480;8.768;2023-04-05T23:01:46;2.80;40.80
38265;DHT22;24062;47.480;8.768;2023-04-05T23:05:47;2.90;41.40
38265;DHT22;24062;47.480;8.768;2023-04-05T23:08:32;2.80;41.80
38265;DHT22;24062;47.480;8.768;2023-04-05T23:11:00;2.70;41.60
38265;DHT22;24062;47.480;8.768;2023-04-05T23:13:28;2.70;41.70
38265;DHT22;24062;47.480;8.768;2023-04-05T23:15:55;2.60;42.10
38265;DHT22;24062;47.480;8.768;2023-04-05T23:18:22;2.60;42.60
38265;DHT22;24062;47.480;8.768;2023-04-05T23:20:49;2.60;42.50
38265;DHT22;24062;47.480;8.768;2023-04-05T23:23:16;2.50;42.50
38265;DHT22;24062;47.480;8.768;2023-04-05T23:25:43;2.50;42.70
38265;DHT22;24062;47.480;8.768;2023-04-05T23:28:10;2.50;42.70
38265;DHT22;24062;47.480;8.768;2023-04-05T23:30:38;2.40;42.70
38265;DHT22;24062;47.480;8.768;2023-04-05T23:33:05;2.40;43.00
38265;DHT22;24062;47.480;8.768;2023-04-05T23:35:32;2.40;43.20
38265;DHT22;24062;47.480;8.768;2023-04-05T23:37:59;2.30;43.20
38265;DHT22;24062;47.480;8.768;2023-04-05T23:40:26;2.30;43.30
38265;DHT22;24062;47.480;8.768;2023-04-05T23:42:53;2.20;43.20
38265;DHT22;24062;47.480;8.768;2023-04-05T23:45:19;2.20;43.10
38265;DHT22;24062;47.480;8.768;2023-04-05T23:47:48;2.20;43.50
38265;DHT22;24062;47.480;8.768;2023-04-05T23:50:16;2.00;44.00
38265;DHT22;24062;47.480;8.768;2023-04-05T23:52:43;1.80;44.30
38265;DHT22;24062;47.480;8.768;2023-04-05T23:55:10;1.70;44.10
38265;DHT22;24062;47.480;8.768;2023-04-05T23:57:37;1.60;44.70
